Manito, Washington
Current Conditions -  °F | °C
As of 11:53 PM on Thursday 20 Nov 2014 (Local Time) from KSFF Reporting Station
Haze Haze  
Wind Chill: 34°   Ceiling: 700
Heat Index: 34°   Visibility: 5mi
Dew Point: 31°   Wind: 0mph
Humidity: 89%   Direction: NA
Pressure: 29.99"   Gusts: NA
Location:  47.5876°N, 117.326°W
Report Text: KSFF 210753Z AUTO 00000KT 5SM BR OVC007 01/M01 A2999 RMK AO2 SLP170 T00111006 400111028
Loading
Personal Weather Stations






























Interactive Weather Map New forecast layout! Learn more

10-Day Weather Forecast

Advertisements
Track Severe Weather on mobile